aviador You're here:

KNKT Decoded Metar

CHERRY POINT in NC, USA
Report Time2018-07-18 22:54:00
UTC Time2018-07-18 23:52:26
Flight Rules vfr VFR
Wind050° at 06 kt
W.Decomp.*RWY 05: 5.9 kt HW 0.9 kt RCW
RWY 14: 0.9 kt HW 5.9 kt LCW
W.Rank050° ranks 10
Current wind is below 050° avg. (8.6)
Visibility9999 m
Phenomena:N/A
Clouds:Overcast 060 Hf
Expected CloudBase > 1,200 ft AGL from Temp-Dew spread
Ceiling6,000 ft
Temp28°C (ISA +13)
Dew Point25°C (84% RH)
Heat Index32.7°C
QNH1014 hPa
Density Alt1,913 ft
Elevation30 ft
Report Wrong Elevation
Raw Report
KNKT 182254Z 05006KT 10SM OVC060 28/25 A2993 RMK AO2 SLP131
T02780250 $=

Extra information for KNKT:More info

Metar Taf Metar & Taf Last 4 Metars F.Rules Stats Wind Profile Meteogram Temp Stats Airport Information Weather charts Add Link Nearby VenuesMetar ALERT Operation Metar Decoded Social comments

AIRNAV info for KNKT